Time;durP1;ratioP1;P1;durP2;ratioP2;P2;SDS_P1;SDS_P2;PMS_P1;PMS_P2;Temp;Humidity;BMP_temperature;BMP_pressure;BME280_temperature;BME280_humidity;BME280_pressure;Samples;Min_cycle;Max_cycle;Signal;HPM_P1;HPM_P2
2023/07/31 00:01:24;;;;;;;;;;;;;;;17.40;78.53;100521.33;108589;1260;60638;-94
2023/07/31 00:03:51;;;;;;;;;;;;;;;17.31;77.75;100512.69;108408;1264;125872;-94
2023/07/31 00:06:21;;;;;;;;;;;;;;;17.24;77.35;100509.02;108599;1262;68339;-94
2023/07/31 00:08:49;;;;;;;;;;;;;;;17.21;77.09;100513.64;108504;1260;73862;-94
2023/07/31 00:11:18;;;;;;;;;;;;;;;17.22;77.17;100529.95;108514;1267;125264;-93
2023/07/31 00:13:45;;;;;;;;;;;;;;;17.24;77.41;100539.69;108873;1263;59475;-95
2023/07/31 00:16:13;;;;;;;;;;;;;;;17.23;77.51;100532.42;108781;1267;124564;-94
2023/07/31 00:18:41;;;;;;;;;;;;;;;17.20;77.63;100524.29;108851;1264;65983;-93
2023/07/31 00:21:08;;;;;;;;;;;;;;;17.18;77.61;100522.89;108828;1264;72507;-95
2023/07/31 00:24:14;;;;;;;;;;;;;;;17.15;77.61;100522.55;108690;1261;125332;-89
2023/07/31 00:26:47;;;;;;;;;;;;;;;17.15;77.85;100525.20;109087;1264;59701;-87
2023/07/31 00:32:34;;;;;;;;;;;;;;;17.11;77.81;100516.35;108821;1260;66494;-87
2023/07/31 00:41:52;;;;;;;;;;;;;;;16.90;77.54;100505.64;108865;1260;123953;-88
2023/07/31 00:44:52;;;;;;;;;;;;;;;16.85;77.58;100503.38;108926;1261;76465;-86
2023/07/31 00:57:55;;;;;;;;;;;;;;;;;;;;;
2023/07/31 01:04:27;;;;;;;;;;;;;;;16.51;77.94;100478.33;107796;1273;125300;-86
2023/07/31 01:07:11;;;;;;;;;;;;;;;16.43;77.93;100478.72;107627;1276;72691;-86
2023/07/31 01:10:04;;;;;;;;;;;;;;;16.33;77.90;100479.98;107838;1276;127461;-91
2023/07/31 01:12:38;;;;;;;;;;;;;;;16.23;78.05;100477.88;107664;1279;61134;-86
2023/07/31 01:15:17;;;;;;;;;;;;;;;16.17;78.20;100472.05;107713;1273;74407;-90
2023/07/31 01:17:45;;;;;;;;;;;;;;;16.10;78.29;100469.42;107653;1274;125614;-86
2023/07/31 01:20:14;;;;;;;;;;;;;;;16.06;78.44;100471.91;107625;1277;72775;-86
2023/07/31 01:23:01;;;;;;;;;;;;;;;16.03;78.65;100473.85;107716;1276;124850;-86
2023/07/31 01:26:03;;;;;;;;;;;;;;;16.02;78.80;100477.05;107874;1274;59886;-91
2023/07/31 01:32:07;;;;;;;;;;;;;;;15.93;78.80;100472.10;108454;1270;65116;-87
2023/07/31 01:34:35;;;;;;;;;;;;;;;15.89;78.96;100476.36;108324;1269;125840;-86
2023/07/31 01:37:21;;;;;;;;;;;;;;;15.84;78.99;100479.72;108290;1270;59877;-87
2023/07/31 01:39:58;;;;;;;;;;;;;;;15.77;78.81;100484.32;108340;1270;125409;-92
2023/07/31 01:42:32;;;;;;;;;;;;;;;15.69;78.98;100488.36;108251;1268;75677;-86
2023/07/31 01:44:59;;;;;;;;;;;;;;;15.63;78.96;100486.41;108839;1260;65114;-87
2023/07/31 01:47:41;;;;;;;;;;;;;;;15.56;79.11;100481.99;108632;1260;125074;-87
2023/07/31 01:50:09;;;;;;;;;;;;;;;15.52;79.18;100486.77;108713;1260;59947;-87
2023/07/31 01:53:04;;;;;;;;;;;;;;;15.50;79.28;100491.19;108975;1260;125283;-91
2023/07/31 01:55:50;;;;;;;;;;;;;;;15.48;79.38;100491.71;108956;1260;74601;-90
2023/07/31 02:05:42;;;;;;;;;;;;;;;15.36;79.61;100488.34;108817;1260;125276;-90
2023/07/31 02:08:54;;;;;;;;;;;;;;;15.29;79.51;100496.11;108783;1267;59853;-85
2023/07/31 02:11:39;;;;;;;;;;;;;;;15.23;79.53;100501.94;108392;1267;125599;-91
2023/07/31 02:14:18;;;;;;;;;;;;;;;15.15;79.54;100505.27;108529;1267;65575;-92
2023/07/31 02:19:44;;;;;;;;;;;;;;;15.06;79.66;100504.55;108574;1266;59929;-86
2023/07/31 02:22:20;;;;;;;;;;;;;;;15.02;79.81;100501.55;108513;1267;125530;-92
2023/07/31 02:25:16;;;;;;;;;;;;;;;15.00;79.98;100499.23;108602;1266;74277;-86
2023/07/31 02:28:06;;;;;;;;;;;;;;;14.99;80.11;100499.05;108653;1266;125509;-87
2023/07/31 02:31:18;;;;;;;;;;;;;;;15.04;80.38;100496.95;108520;1266;71228;-86
2023/07/31 02:33:46;;;;;;;;;;;;;;;15.09;80.44;100499.44;108601;1262;125509;-86
2023/07/31 02:36:19;;;;;;;;;;;;;;;15.11;80.36;100496.97;108698;1263;60164;-86
2023/07/31 02:38:46;;;;;;;;;;;;;;;15.11;80.28;100498.91;108723;1262;74502;-86
2023/07/31 02:41:27;;;;;;;;;;;;;;;15.10;80.15;100497.66;108613;1263;125091;-86
2023/07/31 02:43:57;;;;;;;;;;;;;;;15.07;80.10;100498.01;108821;1262;71395;-91
2023/07/31 02:46:30;;;;;;;;;;;;;;;15.03;79.91;100498.89;108639;1263;125596;-86
2023/07/31 02:48:57;;;;;;;;;;;;;;;14.99;80.03;100502.95;108820;1262;59790;-86
2023/07/31 02:51:37;;;;;;;;;;;;;;;14.97;79.94;100505.40;108783;1261;75531;-85
2023/07/31 02:54:13;;;;;;;;;;;;;;;14.95;79.99;100507.52;108713;1263;66519;-92
2023/07/31 02:56:40;;;;;;;;;;;;;;;14.94;79.91;100509.64;108688;1262;71514;-86
2023/07/31 02:59:27;;;;;;;;;;;;;;;14.91;79.84;100508.05;108901;1261;125546;-92
2023/07/31 03:01:56;;;;;;;;;;;;;;;14.88;79.90;100509.98;108787;1261;59823;-85
2023/07/31 03:04:35;;;;;;;;;;;;;;;14.85;79.86;100516.66;108722;1262;125241;-85
2023/07/31 03:07:02;;;;;;;;;;;;;;;14.82;79.96;100518.77;108840;1262;65972;-85
2023/07/31 03:16:35;;;;;;;;;;;;;;;14.76;80.14;100530.23;108855;1261;125230;-91
2023/07/31 03:19:20;;;;;;;;;;;;;;;14.76;80.30;100534.48;108902;1262;74314;-92
2023/07/31 03:21:48;;;;;;;;;;;;;;;14.78;80.34;100532.89;108743;1262;125284;-86
2023/07/31 03:24:19;;;;;;;;;;;;;;;14.79;80.19;100535.55;108669;1262;74313;-86
2023/07/31 03:26:47;;;;;;;;;;;;;;;14.81;80.49;100532.55;108757;1262;59899;-86
2023/07/31 03:29:23;;;;;;;;;;;;;;;14.85;80.49;100532.40;108744;1262;125137;-87
2023/07/31 03:32:02;;;;;;;;;;;;;;;14.90;80.54;100535.95;108909;1261;75407;-87
2023/07/31 03:38:09;;;;;;;;;;;;;;;15.06;80.54;100537.94;108872;1262;71223;-87
2023/07/31 03:46:57;;;;;;;;;;;;;;;17.69;84.05;100530.32;108774;1262;125439;-85
2023/07/31 03:50:21;;;;;;;;;;;;;;;19.34;82.29;100533.34;108661;1266;65679;-89
2023/07/31 03:53:53;;;;;;;;;;;;;;;20.14;78.47;100534.77;108209;1270;125147;-89
2023/07/31 03:56:59;;;;;;;;;;;;;;;21.55;78.21;100537.06;107792;1275;59929;-86
2023/07/31 03:59:39;;;;;;;;;;;;;;;22.80;76.50;100536.88;107541;1276;124663;-86
2023/07/31 04:02:35;;;;;;;;;;;;;;;23.98;74.43;100535.19;107872;1276;73990;-91
2023/07/31 04:08:13;;;;;;;;;;;;;;;26.50;69.70;100533.53;107841;1275;72786;-86
2023/07/31 04:10:52;;;;;;;;;;;;;;;27.39;67.62;100531.75;107557;1276;124549;-91
2023/07/31 04:13:28;;;;;;;;;;;;;;;28.35;65.57;100531.29;107554;1275;61336;-85
2023/07/31 04:16:03;;;;;;;;;;;;;;;29.11;63.64;100529.55;107530;1276;124673;-85
2023/07/31 04:18:43;;;;;;;;;;;;;;;29.89;61.95;100530.04;107548;1276;59868;-87
2023/07/31 04:21:27;;;;;;;;;;;;;;;30.70;60.15;100532.03;107765;1273;65085;-92
2023/07/31 04:24:30;;;;;;;;;;;;;;;31.48;58.35;100529.25;108230;1270;123348;-91
2023/07/31 04:26:57;;;;;;;;;;;;;;;32.28;56.46;100527.70;108328;1270;59877;-87
2023/07/31 04:29:25;;;;;;;;;;;;;;;33.00;55.02;100528.43;108017;1270;124489;-86
2023/07/31 04:35:52;;;;;;;;;;;;;;;;;;;;;
2023/07/31 04:38:57;;;;;;;;;;;;;;;34.67;49.62;100526.23;107486;1277;59840;-91
2023/07/31 04:44:38;;;;;;;;;;;;;;;35.63;46.85;100528.27;107520;1276;66625;-85
2023/07/31 04:47:05;;;;;;;;;;;;;;;36.18;45.98;100527.11;107538;1276;59959;-88
2023/07/31 04:49:32;;;;;;;;;;;;;;;36.66;44.68;100522.18;107355;1277;62810;-86
2023/07/31 04:52:12;;;;;;;;;;;;;;;37.08;43.86;100525.07;107346;1275;123696;-85
2023/07/31 04:54:43;;;;;;;;;;;;;;;37.69;42.86;100520.45;107425;1276;60313;-84
2023/07/31 04:57:10;;;;;;;;;;;;;;;38.23;41.78;100524.14;107426;1275;65909;-83
2023/07/31 04:59:54;;;;;;;;;;;;;;;38.54;40.65;100528.52;107567;1276;124629;-92
2023/07/31 05:02:31;;;;;;;;;;;;;;;38.80;39.82;100525.83;107551;1276;62832;-91
2023/07/31 05:08:20;;;;;;;;;;;;;;;39.33;37.96;100529.40;108436;1270;59947;-86
2023/07/31 05:14:28;;;;;;;;;;;;;;;40.01;36.29;100526.13;108930;1261;59728;-94
2023/07/31 05:16:56;;;;;;;;;;;;;;;40.19;35.45;100520.89;108663;1262;124379;-86
2023/07/31 05:19:24;;;;;;;;;;;;;;;40.21;34.69;100520.49;108723;1262;59701;-85
2023/07/31 05:22:19;;;;;;;;;;;;;;;40.09;34.14;100518.11;108759;1263;124618;-92
2023/07/31 05:24:46;;;;;;;;;;;;;;;40.06;33.79;100518.06;108629;1266;66897;-85
2023/07/31 05:27:18;;;;;;;;;;;;;;;40.19;33.35;100519.80;108515;1266;59912;-84
2023/07/31 05:29:45;;;;;;;;;;;;;;;40.13;32.52;100519.31;108354;1267;124932;-84
2023/07/31 05:32:36;;;;;;;;;;;;;;;39.82;32.29;100518.81;108574;1266;59749;-90
2023/07/31 05:35:23;;;;;;;;;;;;;;;39.71;32.34;100520.84;108455;1266;124395;-91
2023/07/31 05:37:52;;;;;;;;;;;;;;;39.96;31.92;100520.54;108479;1267;75979;-91
2023/07/31 05:40:24;;;;;;;;;;;;;;;40.06;31.51;100521.71;108112;1266;124861;-84
2023/07/31 05:42:51;;;;;;;;;;;;;;;39.63;30.80;100527.40;108243;1266;63310;-91
2023/07/31 05:45:21;;;;;;;;;;;;;;;37.51;30.12;100526.08;108514;1266;60003;-84
2023/07/31 05:47:48;;;;;;;;;;;;;;;34.85;31.05;100524.07;108369;1267;124673;-86
2023/07/31 05:50:15;;;;;;;;;;;;;;;32.51;32.43;100529.81;108451;1267;66716;-85
2023/07/31 05:52:42;;;;;;;;;;;;;;;30.66;33.75;100530.38;108203;1266;124982;-84
2023/07/31 05:55:09;;;;;;;;;;;;;;;29.13;35.22;100531.43;108307;1266;64109;-84
2023/07/31 05:57:42;;;;;;;;;;;;;;;27.99;36.67;100531.89;108463;1266;59741;-90
2023/07/31 06:00:11;;;;;;;;;;;;;;;26.95;38.04;100535.83;108275;1266;124312;-89
2023/07/31 06:02:38;;;;;;;;;;;;;;;26.07;38.86;100537.88;108364;1267;75442;-84
2023/07/31 06:05:05;;;;;;;;;;;;;;;25.35;40.16;100539.56;108226;1266;124612;-85
2023/07/31 06:07:33;;;;;;;;;;;;;;;24.85;41.19;100539.69;108308;1267;72786;-90
2023/07/31 06:10:04;;;;;;;;;;;;;;;24.38;41.64;100536.15;108561;1266;124565;-84
2023/07/31 06:12:32;;;;;;;;;;;;;;;23.96;42.35;100539.77;108471;1267;60263;-85
2023/07/31 06:14:59;;;;;;;;;;;;;;;23.61;43.29;100540.70;108415;1267;75321;-85
2023/07/31 06:17:29;;;;;;;;;;;;;;;23.21;43.68;100540.34;108510;1266;124442;-92
2023/07/31 06:19:58;;;;;;;;;;;;;;;22.92;44.65;100539.58;108459;1267;71444;-84
2023/07/31 06:22:26;;;;;;;;;;;;;;;22.66;45.42;100541.41;108283;1265;124623;-91
2023/07/31 06:24:54;;;;;;;;;;;;;;;22.47;45.93;100541.23;108405;1267;60201;-84
2023/07/31 06:27:22;;;;;;;;;;;;;;;22.31;46.49;100541.29;108407;1267;75394;-93
2023/07/31 06:30:19;;;;;;;;;;;;;;;22.08;47.12;100538.98;108762;1262;67116;-86
2023/07/31 06:36:38;;;;;;;;;;;;;;;21.73;47.91;100540.06;108789;1260;124252;-85
2023/07/31 06:39:20;;;;;;;;;;;;;;;21.56;48.66;100540.27;108869;1262;59869;-93
2023/07/31 06:45:37;;;;;;;;;;;;;;;21.29;49.63;100548.73;108411;1267;68509;-88
2023/07/31 06:48:04;;;;;;;;;;;;;;;21.17;49.84;100551.84;108274;1269;124723;-86
2023/07/31 06:50:42;;;;;;;;;;;;;;;21.08;50.12;100550.44;108351;1268;60237;-86
2023/07/31 06:57:16;;;;;;;;;;;;;;;20.97;51.02;100557.81;108274;1272;74315;-90
2023/07/31 06:59:54;;;;;;;;;;;;;;;20.85;50.99;100560.73;107867;1273;124932;-85
2023/07/31 07:02:47;;;;;;;;;;;;;;;20.73;51.27;100557.58;107583;1273;72428;-85
2023/07/31 07:05:24;;;;;;;;;;;;;;;20.72;51.57;100559.92;107675;1273;124708;-92
2023/07/31 07:08:00;;;;;;;;;;;;;;;20.70;51.85;100559.43;108014;1273;59963;-86
2023/07/31 07:10:50;;;;;;;;;;;;;;;20.66;51.96;100557.53;107587;1273;124833;-92
2023/07/31 07:14:01;;;;;;;;;;;;;;;;;;;;;
2023/07/31 07:16:54;;;;;;;;;;;;;;;20.67;52.60;100551.83;107653;1276;123729;-93
2023/07/31 07:19:22;;;;;;;;;;;;;;;20.69;52.60;100547.13;107691;1275;59169;-85
2023/07/31 07:22:05;;;;;;;;;;;;;;;20.73;52.51;100551.34;107732;1276;60067;-93
2023/07/31 07:25:08;;;;;;;;;;;;;;;20.81;52.35;100546.20;107572;1275;75479;-85
2023/07/31 07:28:29;;;;;;;;;;;;;;;20.94;52.50;100550.73;107656;1276;123643;-92
2023/07/31 07:30:58;;;;;;;;;;;;;;;21.04;52.83;100543.56;107598;1276;71275;-85
2023/07/31 07:33:36;;;;;;;;;;;;;;;21.05;52.46;100541.58;107569;1276;59993;-92
2023/07/31 07:36:05;;;;;;;;;;;;;;;21.04;52.34;100541.42;107494;1276;125022;-85
2023/07/31 07:38:36;;;;;;;;;;;;;;;21.03;52.35;100539.48;107483;1276;76542;-92
2023/07/31 07:41:21;;;;;;;;;;;;;;;21.03;52.28;100539.50;106984;1279;124731;-92
2023/07/31 07:43:58;;;;;;;;;;;;;;;21.04;52.26;100543.04;107413;1279;70706;-91
2023/07/31 07:46:31;;;;;;;;;;;;;;;21.07;51.97;100536.71;106940;1281;124833;-84
2023/07/31 07:49:12;;;;;;;;;;;;;;;21.17;52.01;100543.45;107190;1279;59919;-90
2023/07/31 07:51:48;;;;;;;;;;;;;;;21.34;51.99;100545.59;107212;1279;74661;-85
2023/07/31 07:54:21;;;;;;;;;;;;;;;21.48;52.05;100539.57;107178;1279;124473;-84
2023/07/31 07:57:03;;;;;;;;;;;;;;;21.65;52.05;100536.31;107375;1278;72955;-84
2023/07/31 07:59:44;;;;;;;;;;;;;;;21.79;52.07;100532.77;107290;1274;124625;-92
2023/07/31 08:02:18;;;;;;;;;;;;;;;21.91;51.80;100532.64;107840;1274;60106;-86
2023/07/31 08:04:53;;;;;;;;;;;;;;;21.95;51.25;100530.94;107646;1274;124500;-85
2023/07/31 08:07:20;;;;;;;;;;;;;;;22.01;51.03;100525.95;107574;1276;67816;-85
2023/07/31 08:09:48;;;;;;;;;;;;;;;22.08;50.91;100523.45;107387;1275;72777;-85
2023/07/31 08:12:18;;;;;;;;;;;;;;;22.07;50.86;100525.27;107736;1270;124471;-83
2023/07/31 08:14:54;;;;;;;;;;;;;;;22.20;50.75;100523.16;108252;1269;59705;-83
2023/07/31 08:17:28;;;;;;;;;;;;;;;22.39;50.37;100520.69;108237;1270;123321;-84
2023/07/31 08:19:58;;;;;;;;;;;;;;;22.39;49.94;100524.09;108046;1267;67030;-84
2023/07/31 08:22:29;;;;;;;;;;;;;;;22.45;49.92;100523.02;108343;1267;123715;-84
2023/07/31 08:25:37;;;;;;;;;;;;;;;22.56;49.81;100522.19;108536;1266;59125;-92
2023/07/31 08:28:40;;;;;;;;;;;;;;;;;;;;;
2023/07/31 08:31:59;;;;;;;;;;;;;;;22.83;49.34;100527.85;109028;1260;75276;-93
2023/07/31 08:34:28;;;;;;;;;;;;;;;22.94;48.99;100524.85;108710;1260;124939;-84
2023/07/31 08:37:04;;;;;;;;;;;;;;;22.96;48.80;100520.12;108882;1260;72591;-92
2023/07/31 08:39:58;;;;;;;;;;;;;;;;;;;;;
2023/07/31 08:42:56;;;;;;;;;;;;;;;;;;;;;
2023/07/31 08:45:55;;;;;;;;;;;;;;;23.23;48.14;100518.98;108896;1260;74959;-85
2023/07/31 08:48:34;;;;;;;;;;;;;;;23.21;47.80;100515.98;108658;1260;124812;-85
2023/07/31 08:51:01;;;;;;;;;;;;;;;23.21;47.84;100509.19;108712;1260;72721;-85
2023/07/31 08:53:29;;;;;;;;;;;;;;;23.35;48.37;100508.23;108568;1260;125051;-93
2023/07/31 08:56:02;;;;;;;;;;;;;;;23.53;47.91;100511.42;108674;1260;61548;-86
2023/07/31 08:58:33;;;;;;;;;;;;;;;23.62;47.74;100508.25;108602;1260;124713;-85
2023/07/31 09:01:01;;;;;;;;;;;;;;;23.72;47.57;100507.40;108677;1260;65904;-85
2023/07/31 09:03:33;;;;;;;;;;;;;;;23.81;47.72;100509.98;108784;1260;71129;-86
2023/07/31 09:06:00;;;;;;;;;;;;;;;23.87;47.76;100507.45;108813;1260;124375;-92
2023/07/31 09:08:29;;;;;;;;;;;;;;;23.85;47.48;100503.91;108808;1260;59980;-86
2023/07/31 09:11:01;;;;;;;;;;;;;;;23.83;47.62;100503.81;108811;1260;123367;-86
2023/07/31 09:13:29;;;;;;;;;;;;;;;23.87;47.82;100501.17;108819;1260;65957;-86
2023/07/31 09:15:57;;;;;;;;;;;;;;;23.92;47.69;100497.79;108819;1260;72915;-86
2023/07/31 09:18:25;;;;;;;;;;;;;;;23.89;47.37;100499.66;108683;1260;124510;-86
2023/07/31 09:21:04;;;;;;;;;;;;;;;23.85;47.44;100497.10;108833;1260;59976;-85
2023/07/31 09:23:42;;;;;;;;;;;;;;;23.93;47.24;100490.75;108672;1261;124370;-85
2023/07/31 09:26:39;;;;;;;;;;;;;;;23.93;46.89;100493.10;108809;1260;67380;-93
2023/07/31 09:29:08;;;;;;;;;;;;;;;23.93;46.93;100492.56;108823;1260;124422;-93
2023/07/31 09:32:03;;;;;;;;;;;;;;;23.80;46.86;100495.66;108677;1260;60132;-92
2023/07/31 09:34:38;;;;;;;;;;;;;;;23.76;47.26;100492.20;108888;1260;124716;-92
2023/07/31 09:37:07;;;;;;;;;;;;;;;23.86;46.96;100488.84;108781;1260;73184;-92
2023/07/31 09:40:08;;;;;;;;;;;;;;;23.93;46.40;100492.75;108816;1260;65913;-92
2023/07/31 09:42:44;;;;;;;;;;;;;;;23.88;45.81;100492.39;108766;1260;71461;-84
2023/07/31 09:45:12;;;;;;;;;;;;;;;23.91;45.68;100494.05;108748;1260;59881;-83
2023/07/31 09:47:46;;;;;;;;;;;;;;;24.10;45.61;100488.73;108599;1260;124424;-85
2023/07/31 09:50:21;;;;;;;;;;;;;;;24.36;45.74;100486.53;108870;1260;74194;-90
2023/07/31 09:52:50;;;;;;;;;;;;;;;24.63;45.53;100487.75;108746;1260;124789;-83
2023/07/31 09:55:25;;;;;;;;;;;;;;;24.79;45.33;100480.70;108752;1260;73153;-83
2023/07/31 09:57:54;;;;;;;;;;;;;;;24.96;44.78;100478.58;108830;1260;59850;-84
2023/07/31 10:00:28;;;;;;;;;;;;;;;25.11;44.80;100474.95;108700;1260;125444;-91
2023/07/31 10:02:57;;;;;;;;;;;;;;;25.27;44.53;100463.55;108805;1260;75298;-91
2023/07/31 10:05:30;;;;;;;;;;;;;;;25.41;44.44;100459.23;108744;1261;124873;-91
2023/07/31 10:07:56;;;;;;;;;;;;;;;25.50;44.34;100464.77;108865;1260;71832;-85
2023/07/31 10:10:32;;;;;;;;;;;;;;;25.51;43.94;100462.02;108706;1260;124619;-91
2023/07/31 10:13:02;;;;;;;;;;;;;;;25.45;43.76;100459.25;108751;1260;59660;-84
2023/07/31 10:15:30;;;;;;;;;;;;;;;25.34;43.73;100454.98;108858;1260;74038;-93
2023/07/31 10:18:03;;;;;;;;;;;;;;;25.33;44.21;100453.98;108743;1260;124625;-93
2023/07/31 10:20:36;;;;;;;;;;;;;;;25.40;43.94;100449.21;108793;1260;71420;-92
2023/07/31 10:23:17;;;;;;;;;;;;;;;25.50;43.79;100450.41;108694;1260;124547;-93
2023/07/31 10:25:44;;;;;;;;;;;;;;;25.54;43.46;100450.63;108733;1260;60133;-94
2023/07/31 10:28:29;;;;;;;;;;;;;;;25.63;42.96;100446.64;108640;1261;124711;-91
2023/07/31 10:30:56;;;;;;;;;;;;;;;25.73;42.84;100443.52;108766;1260;66240;-91
2023/07/31 10:33:23;;;;;;;;;;;;;;;25.78;42.17;100444.18;108920;1260;72793;-84
2023/07/31 10:35:54;;;;;;;;;;;;;;;25.86;41.72;100438.83;108711;1261;125825;-84
2023/07/31 10:38:23;;;;;;;;;;;;;;;26.00;41.73;100436.98;108765;1260;59967;-83
2023/07/31 10:41:07;;;;;;;;;;;;;;;26.18;41.37;100443.39;108691;1260;124464;-84
2023/07/31 10:43:36;;;;;;;;;;;;;;;26.32;41.00;100442.04;108733;1260;64839;-84
2023/07/31 10:46:13;;;;;;;;;;;;;;;26.47;41.17;100435.40;108799;1261;72520;-83
2023/07/31 10:49:26;;;;;;;;;;;;;;;26.63;41.04;100438.66;108888;1260;59911;-84
2023/07/31 10:52:02;;;;;;;;;;;;;;;26.87;40.80;100433.39;103900;1269;5888988;-92
2023/07/31 10:54:31;;;;;;;;;;;;;;;26.94;40.58;100434.67;108177;1270;125100;-92
2023/07/31 10:57:16;;;;;;;;;;;;;;;26.93;40.30;100432.94;108224;1268;74453;-92
2023/07/31 10:59:50;;;;;;;;;;;;;;;26.87;40.38;100434.09;108219;1269;124391;-89
2023/07/31 11:02:26;;;;;;;;;;;;;;;26.77;40.44;100436.02;108361;1269;59930;-84
2023/07/31 11:05:08;;;;;;;;;;;;;;;26.73;40.49;100443.08;108108;1268;125063;-92
2023/07/31 11:07:50;;;;;;;;;;;;;;;26.63;40.28;100436.86;108362;1270;65279;-83
2023/07/31 11:10:18;;;;;;;;;;;;;;;26.64;40.69;100433.04;108256;1268;125159;-83
2023/07/31 11:12:47;;;;;;;;;;;;;;;26.77;40.63;100432.43;108326;1268;60232;-92
2023/07/31 11:15:26;;;;;;;;;;;;;;;26.86;40.61;100432.91;108240;1268;59875;-83
2023/07/31 11:17:53;;;;;;;;;;;;;;;26.89;40.39;100429.52;108399;1260;125152;-85
2023/07/31 11:20:20;;;;;;;;;;;;;;;26.86;40.61;100431.06;108749;1260;67050;-85
2023/07/31 11:22:54;;;;;;;;;;;;;;;26.80;40.59;100432.45;108776;1262;124579;-84
2023/07/31 11:25:45;;;;;;;;;;;;;;;26.79;40.47;100438.25;108905;1261;59713;-94
2023/07/31 11:28:18;;;;;;;;;;;;;;;26.72;40.26;100439.50;108890;1261;60222;-94
2023/07/31 11:31:02;;;;;;;;;;;;;;;26.58;40.30;100441.57;108868;1262;75555;-94
2023/07/31 11:33:31;;;;;;;;;;;;;;;26.49;40.32;100439.11;108726;1260;66980;-84
2023/07/31 11:35:59;;;;;;;;;;;;;;;26.41;40.22;100441.09;108596;1260;124623;-85
2023/07/31 11:38:27;;;;;;;;;;;;;;;26.28;40.36;100435.57;108686;1261;59902;-92
2023/07/31 11:40:54;;;;;;;;;;;;;;;26.25;40.49;100428.16;108599;1261;125132;-92
2023/07/31 11:43:22;;;;;;;;;;;;;;;26.27;40.51;100432.91;108710;1262;74254;-84
2023/07/31 11:45:52;;;;;;;;;;;;;;;26.24;40.32;100432.86;108776;1260;68682;-84
2023/07/31 11:48:19;;;;;;;;;;;;;;;26.20;40.74;100430.52;108693;1262;124857;-92
2023/07/31 11:50:49;;;;;;;;;;;;;;;26.25;41.01;100430.48;108672;1261;60080;-92
2023/07/31 11:53:43;;;;;;;;;;;;;;;26.37;41.16;100424.17;108677;1261;124576;-93
2023/07/31 11:56:11;;;;;;;;;;;;;;;26.39;41.11;100419.58;108781;1260;74148;-91
2023/07/31 11:58:58;;;;;;;;;;;;;;;26.47;41.31;100418.13;108755;1261;124651;-84
2023/07/31 12:01:27;;;;;;;;;;;;;;;26.63;41.16;100411.13;108728;1262;73320;-84
2023/07/31 12:03:56;;;;;;;;;;;;;;;26.79;41.34;100405.49;108802;1262;59815;-92
2023/07/31 12:06:34;;;;;;;;;;;;;;;26.91;41.22;100403.48;108678;1263;124731;-83
2023/07/31 12:09:06;;;;;;;;;;;;;;;27.03;41.20;100408.14;108711;1262;75357;-85
2023/07/31 12:11:47;;;;;;;;;;;;;;;27.25;41.14;100411.55;108720;1261;123296;-93
2023/07/31 12:14:26;;;;;;;;;;;;;;;27.59;40.96;100404.81;108837;1262;72318;-94
2023/07/31 12:16:56;;;;;;;;;;;;;;;27.81;40.74;100400.60;108668;1261;124688;-83
2023/07/31 12:19:39;;;;;;;;;;;;;;;27.84;40.11;100401.75;108829;1261;59783;-83
2023/07/31 12:22:13;;;;;;;;;;;;;;;27.68;40.02;100399.09;108823;1260;75234;-84
2023/07/31 12:24:41;;;;;;;;;;;;;;;27.60;40.15;100401.52;108690;1261;124212;-92
2023/07/31 12:27:12;;;;;;;;;;;;;;;27.54;40.38;100399.10;108805;1260;72623;-91
2023/07/31 12:29:43;;;;;;;;;;;;;;;27.57;40.63;100398.83;108682;1261;124582;-84
2023/07/31 12:32:28;;;;;;;;;;;;;;;27.57;40.64;100398.27;108821;1260;60091;-91
2023/07/31 12:35:06;;;;;;;;;;;;;;;27.57;40.52;100401.67;108727;1262;124559;-92
2023/07/31 12:37:41;;;;;;;;;;;;;;;27.50;40.39;100406.02;108801;1261;67281;-82
2023/07/31 12:40:14;;;;;;;;;;;;;;;27.35;40.22;100401.00;108864;1260;72804;-90
2023/07/31 12:42:41;;;;;;;;;;;;;;;27.13;40.36;100399.39;108691;1261;124514;-84
2023/07/31 12:45:08;;;;;;;;;;;;;;;26.79;39.95;100400.48;108779;1260;59829;-83
2023/07/31 12:47:36;;;;;;;;;;;;;;;26.53;40.28;100398.26;108637;1261;125065;-89
2023/07/31 12:50:05;;;;;;;;;;;;;;;26.35;40.57;100391.51;108835;1263;65191;-83
2023/07/31 12:52:33;;;;;;;;;;;;;;;26.23;40.78;100391.73;108662;1262;124501;-88
2023/07/31 12:55:01;;;;;;;;;;;;;;;26.04;41.09;100389.86;108843;1261;59795;-90
2023/07/31 12:57:28;;;;;;;;;;;;;;;25.87;41.05;100388.25;108886;1261;60146;-89
2023/07/31 13:00:04;;;;;;;;;;;;;;;25.73;41.12;100386.20;108799;1261;124345;-91
2023/07/31 13:02:33;;;;;;;;;;;;;;;25.57;41.39;100383.64;108854;1261;66166;-90
2023/07/31 13:05:00;;;;;;;;;;;;;;;25.51;41.80;100382.44;108734;1260;123624;-90
2023/07/31 13:07:31;;;;;;;;;;;;;;;25.54;41.86;100381.63;108825;1261;60104;-90
2023/07/31 13:09:58;;;;;;;;;;;;;;;25.54;42.12;100380.53;108811;1260;59765;-84
2023/07/31 13:12:25;;;;;;;;;;;;;;;25.44;42.16;100381.11;108671;1262;124859;-91
2023/07/31 13:14:52;;;;;;;;;;;;;;;25.21;42.12;100380.45;108793;1261;65862;-92
2023/07/31 13:17:19;;;;;;;;;;;;;;;24.95;42.36;100376.69;108688;1261;124443;-84
2023/07/31 13:19:49;;;;;;;;;;;;;;;24.71;42.71;100376.19;108761;1260;59738;-84
2023/07/31 13:22:22;;;;;;;;;;;;;;;24.46;43.00;100386.82;108870;1260;60116;-89
2023/07/31 13:24:54;;;;;;;;;;;;;;;24.11;43.63;100386.17;108867;1260;74259;-83
2023/07/31 13:27:24;;;;;;;;;;;;;;;23.89;44.26;100388.76;108868;1260;65879;-84
2023/07/31 13:29:58;;;;;;;;;;;;;;;23.68;44.65;100388.04;108688;1260;124773;-84
2023/07/31 13:32:25;;;;;;;;;;;;;;;23.39;45.00;100386.86;108773;1262;60109;-84
2023/07/31 13:34:54;;;;;;;;;;;;;;;23.18;45.58;100387.55;108630;1265;124595;-84
2023/07/31 13:37:28;;;;;;;;;;;;;;;23.14;45.96;100386.11;108796;1260;75240;-84
2023/07/31 13:39:55;;;;;;;;;;;;;;;23.22;46.27;100381.52;108850;1260;66882;-84
2023/07/31 13:42:22;;;;;;;;;;;;;;;23.38;46.45;100379.22;108763;1261;124454;-83
2023/07/31 13:44:56;;;;;;;;;;;;;;;23.52;46.40;100375.49;108825;1262;59812;-84
2023/07/31 13:47:25;;;;;;;;;;;;;;;23.66;46.39;100371.44;108802;1260;124387;-83
2023/07/31 13:49:53;;;;;;;;;;;;;;;23.83;46.48;100366.75;108827;1262;75492;-90
2023/07/31 13:52:20;;;;;;;;;;;;;;;23.99;46.32;100359.73;108829;1261;65958;-84
2023/07/31 13:54:59;;;;;;;;;;;;;;;24.15;46.09;100355.73;108869;1261;71461;-85
2023/07/31 13:57:27;;;;;;;;;;;;;;;24.25;45.82;100356.21;108878;1263;59789;-92
2023/07/31 13:59:54;;;;;;;;;;;;;;;24.28;45.69;100354.36;108700;1260;124412;-82
2023/07/31 14:02:21;;;;;;;;;;;;;;;24.19;45.41;100351.63;108829;1260;75727;-84
2023/07/31 14:04:49;;;;;;;;;;;;;;;24.04;45.62;100350.92;108706;1260;124730;-90
2023/07/31 14:07:17;;;;;;;;;;;;;;;23.94;45.76;100356.14;108785;1260;71372;-84
2023/07/31 14:09:44;;;;;;;;;;;;;;;23.83;45.81;100358.69;108772;1260;59911;-84
2023/07/31 14:12:15;;;;;;;;;;;;;;;23.64;46.26;100357.52;108708;1262;124940;-90
2023/07/31 14:14:44;;;;;;;;;;;;;;;23.45;46.53;100354.62;108835;1261;74326;-89
2023/07/31 14:17:12;;;;;;;;;;;;;;;23.31;47.07;100358.50;108726;1260;124836;-84
2023/07/31 14:19:41;;;;;;;;;;;;;;;23.21;47.32;100359.17;108771;1260;71543;-90
2023/07/31 14:22:34;;;;;;;;;;;;;;;23.03;47.82;100361.75;108685;1261;60155;-91
2023/07/31 14:25:01;;;;;;;;;;;;;;;22.81;48.51;100353.67;108784;1262;59957;-90
2023/07/31 14:27:29;;;;;;;;;;;;;;;22.68;49.18;100356.56;108832;1260;74896;-92
2023/07/31 14:29:58;;;;;;;;;;;;;;;22.57;49.24;100356.92;108613;1260;124699;-85
2023/07/31 14:32:36;;;;;;;;;;;;;;;22.39;49.31;100350.50;108856;1261;71509;-91
2023/07/31 14:35:14;;;;;;;;;;;;;;;22.22;49.66;100350.80;108782;1262;124196;-94
2023/07/31 14:37:55;;;;;;;;;;;;;;;22.16;49.99;100348.83;108915;1260;59758;-83